sensor_id;sensor_type;location;lat;lon;timestamp;pressure;altitude;pressure_sealevel;temperature;humidity
68508;BME280;55510;49.560;19.090;2023-12-14T05:45:50;95267.78;;;0.69;100.00
68508;BME280;55510;49.560;19.090;2023-12-14T05:48:51;95267.38;;;0.72;100.00
68508;BME280;55510;49.560;19.090;2023-12-14T05:51:52;95262.53;;;0.76;100.00
68508;BME280;55510;49.560;19.090;2023-12-14T05:54:53;95270.75;;;0.80;100.00
68508;BME280;55510;49.560;19.090;2023-12-14T05:57:53;95279.56;;;0.92;100.00
68508;BME280;55510;49.560;19.090;2023-12-14T06:00:55;95279.16;;;0.95;100.00
68508;BME280;55510;49.560;19.090;2023-12-14T06:03:57;95280.94;;;1.01;100.00
68508;BME280;55510;49.560;19.090;2023-12-14T06:06:58;95292.59;;;1.06;100.00
68508;BME280;55510;49.560;19.090;2023-12-14T06:09:58;95292.16;;;1.09;100.00
68508;BME280;55510;49.560;19.090;2023-12-14T06:12:59;95297.41;;;1.09;100.00
68508;BME280;55510;49.560;19.090;2023-12-14T06:16:00;95304.25;;;1.10;100.00
68508;BME280;55510;49.560;19.090;2023-12-14T06:19:01;95313.91;;;1.09;100.00
68508;BME280;55510;49.560;19.090;2023-12-14T06:22:01;95318.78;;;1.12;100.00
68508;BME280;55510;49.560;19.090;2023-12-14T06:25:02;95316.53;;;1.09;100.00
68508;BME280;55510;49.560;19.090;2023-12-14T06:28:03;95330.47;;;1.10;100.00
68508;BME280;55510;49.560;19.090;2023-12-14T06:31:04;95328.94;;;1.27;100.00
68508;BME280;55510;49.560;19.090;2023-12-14T06:34:05;95337.66;;;1.21;100.00
68508;BME280;55510;49.560;19.090;2023-12-14T06:37:06;95349.31;;;1.25;100.00
68508;BME280;55510;49.560;19.090;2023-12-14T06:40:08;95359.97;;;1.30;100.00
68508;BME280;55510;49.560;19.090;2023-12-14T06:43:09;95359.38;;;1.28;100.00
68508;BME280;55510;49.560;19.090;2023-12-14T06:46:10;95359.97;;;1.30;100.00
68508;BME280;55510;49.560;19.090;2023-12-14T06:49:11;95369.88;;;1.28;100.00
68508;BME280;55510;49.560;19.090;2023-12-14T06:52:11;95370.28;;;1.25;100.00
68508;BME280;55510;49.560;19.090;2023-12-14T06:55:12;95380.41;;;1.22;100.00
68508;BME280;55510;49.560;19.090;2023-12-14T06:58:14;95375.94;;;1.22;100.00
68508;BME280;55510;49.560;19.090;2023-12-14T07:01:16;95388.81;;;1.30;100.00
68508;BME280;55510;49.560;19.090;2023-12-14T07:04:18;95386.41;;;1.29;100.00
68508;BME280;55510;49.560;19.090;2023-12-14T07:07:20;95396.09;;;1.28;100.00
68508;BME280;55510;49.560;19.090;2023-12-14T07:10:20;95406.16;;;1.32;100.00
68508;BME280;55510;49.560;19.090;2023-12-14T07:13:21;95402.13;;;1.36;100.00
68508;BME280;55510;49.560;19.090;2023-12-14T07:16:24;95411.78;;;1.42;100.00
68508;BME280;55510;49.560;19.090;2023-12-14T07:19:25;95410.94;;;1.48;100.00
68508;BME280;55510;49.560;19.090;2023-12-14T07:22:26;95405.69;;;1.48;100.00
68508;BME280;55510;49.560;19.090;2023-12-14T07:25:26;95408.91;;;1.43;100.00
68508;BME280;55510;49.560;19.090;2023-12-14T07:28:27;95411.34;;;1.45;100.00
68508;BME280;55510;49.560;19.090;2023-12-14T07:31:28;95415.16;;;1.49;100.00
68508;BME280;55510;49.560;19.090;2023-12-14T07:34:29;95413.56;;;1.48;100.00
68508;BME280;55510;49.560;19.090;2023-12-14T07:37:30;95419.97;;;1.52;100.00
68508;BME280;55510;49.560;19.090;2023-12-14T07:40:30;95419.53;;;1.62;100.00
68508;BME280;55510;49.560;19.090;2023-12-14T07:43:31;95423.69;;;1.70;100.00
68508;BME280;55510;49.560;19.090;2023-12-14T07:46:32;95423.69;;;1.70;100.00
68508;BME280;55510;49.560;19.090;2023-12-14T07:49:33;95435.59;;;1.72;100.00
68508;BME280;55510;49.560;19.090;2023-12-14T07:52:33;95443.06;;;1.76;100.00
68508;BME280;55510;49.560;19.090;2023-12-14T07:55:35;95444.47;;;1.78;100.00
68508;BME280;55510;49.560;19.090;2023-12-14T07:58:35;95446.84;;;1.80;100.00
68508;BME280;55510;49.560;19.090;2023-12-14T08:01:36;95449.88;;;1.83;100.00
68508;BME280;55510;49.560;19.090;2023-12-14T08:04:37;95449.03;;;1.90;100.00
68508;BME280;55510;49.560;19.090;2023-12-14T08:07:38;95461.72;;;1.93;100.00
68508;BME280;55510;49.560;19.090;2023-12-14T08:10:39;95469.91;;;2.10;100.00
68508;BME280;55510;49.560;19.090;2023-12-14T08:13:40;95466.25;;;2.11;100.00
68508;BME280;55510;49.560;19.090;2023-12-14T08:16:40;95471.50;;;2.11;100.00
68508;BME280;55510;49.560;19.090;2023-12-14T08:19:42;95479.16;;;2.12;100.00
68508;BME280;55510;49.560;19.090;2023-12-14T08:22:42;95481.94;;;2.17;100.00
68508;BME280;55510;49.560;19.090;2023-12-14T08:25:46;95487.38;;;2.23;100.00
68508;BME280;55510;49.560;19.090;2023-12-14T08:28:46;95490.75;;;2.30;100.00
68508;BME280;55510;49.560;19.090;2023-12-14T08:31:47;95496.97;;;2.36;100.00
68508;BME280;55510;49.560;19.090;2023-12-14T08:34:48;95499.28;;;2.51;100.00
68508;BME280;55510;49.560;19.090;2023-12-14T08:37:49;95504.09;;;2.54;100.00
68508;BME280;55510;49.560;19.090;2023-12-14T08:40:50;95507.47;;;2.61;100.00
68508;BME280;55510;49.560;19.090;2023-12-14T08:43:51;95516.50;;;2.46;100.00
68508;BME280;55510;49.560;19.090;2023-12-14T08:46:52;95522.28;;;2.55;100.00
68508;BME280;55510;49.560;19.090;2023-12-14T08:49:53;95524.09;;;2.55;100.00
68508;BME280;55510;49.560;19.090;2023-12-14T08:52:53;95532.56;;;2.57;100.00
68508;BME280;55510;49.560;19.090;2023-12-14T08:55:54;95525.94;;;2.54;100.00
68508;BME280;55510;49.560;19.090;2023-12-14T08:58:55;95534.41;;;2.56;100.00
68508;BME280;55510;49.560;19.090;2023-12-14T09:01:55;95543.91;;;2.57;100.00
68508;BME280;55510;49.560;19.090;2023-12-14T09:04:56;95545.53;;;2.52;100.00
68508;BME280;55510;49.560;19.090;2023-12-14T09:07:57;95551.38;;;2.54;100.00
68508;BME280;55510;49.560;19.090;2023-12-14T09:10:59;95543.06;;;2.57;100.00
68508;BME280;55510;49.560;19.090;2023-12-14T09:14:00;95547.16;;;2.53;100.00
68508;BME280;55510;49.560;19.090;2023-12-14T09:17:00;95549.56;;;2.54;100.00
68508;BME280;55510;49.560;19.090;2023-12-14T09:20:02;95564.66;;;2.66;100.00
68508;BME280;55510;49.560;19.090;2023-12-14T09:23:05;95565.06;;;2.63;100.00
68508;BME280;55510;49.560;19.090;2023-12-14T09:26:06;95569.78;;;2.54;100.00
68508;BME280;55510;49.560;19.090;2023-12-14T09:29:06;95568.97;;;2.53;100.00
68508;BME280;55510;49.560;19.090;2023-12-14T09:32:08;95569.31;;;2.64;100.00
68508;BME280;55510;49.560;19.090;2023-12-14T09:35:09;95565.22;;;2.68;100.00
68508;BME280;55510;49.560;19.090;2023-12-14T09:38:09;95577.75;;;2.72;100.00
68508;BME280;55510;49.560;19.090;2023-12-14T09:41:11;95582.34;;;2.77;100.00
68508;BME280;55510;49.560;19.090;2023-12-14T09:44:12;95587.00;;;2.75;100.00
68508;BME280;55510;49.560;19.090;2023-12-14T09:47:13;95587.81;;;2.75;100.00
68508;BME280;55510;49.560;19.090;2023-12-14T09:50:13;95595.91;;;2.74;100.00
68508;BME280;55510;49.560;19.090;2023-12-14T09:53:15;95597.56;;;2.68;100.00
68508;BME280;55510;49.560;19.090;2023-12-14T09:56:16;95596.38;;;2.64;100.00
68508;BME280;55510;49.560;19.090;2023-12-14T09:59:17;95597.00;;;2.66;100.00
68508;BME280;55510;49.560;19.090;2023-12-14T10:02:17;95603.44;;;2.70;100.00
68508;BME280;55510;49.560;19.090;2023-12-14T10:05:18;95606.84;;;2.71;100.00
68508;BME280;55510;49.560;19.090;2023-12-14T10:08:19;95610.66;;;2.75;100.00
68508;BME280;55510;49.560;19.090;2023-12-14T10:11:20;95616.91;;;2.74;100.00
68508;BME280;55510;49.560;19.090;2023-12-14T10:14:23;95613.66;;;2.79;100.00
68508;BME280;55510;49.560;19.090;2023-12-14T10:17:25;95619.50;;;2.81;100.00
68508;BME280;55510;49.560;19.090;2023-12-14T10:20:32;95626.56;;;2.80;100.00
68508;BME280;55510;49.560;19.090;2023-12-14T10:23:33;95621.28;;;2.87;100.00
68508;BME280;55510;49.560;19.090;2023-12-14T10:26:35;95630.94;;;2.93;100.00
68508;BME280;55510;49.560;19.090;2023-12-14T10:29:39;95633.16;;;2.96;100.00
68508;BME280;55510;49.560;19.090;2023-12-14T10:32:40;95638.19;;;2.98;100.00
68508;BME280;55510;49.560;19.090;2023-12-14T10:35:41;95635.50;;;3.04;100.00
68508;BME280;55510;49.560;19.090;2023-12-14T10:38:44;95643.97;;;3.07;100.00
68508;BME280;55510;49.560;19.090;2023-12-14T10:41:47;95645.44;;;3.02;100.00
68508;BME280;55510;49.560;19.090;2023-12-14T10:44:52;95640.56;;;3.06;100.00
68508;BME280;55510;49.560;19.090;2023-12-14T10:48:00;95635.78;;;2.96;100.00
68508;BME280;55510;49.560;19.090;2023-12-14T10:51:02;95648.72;;;2.98;100.00
68508;BME280;55510;49.560;19.090;2023-12-14T10:54:03;95647.84;;;3.04;100.00
68508;BME280;55510;49.560;19.090;2023-12-14T10:57:05;95654.28;;;3.08;100.00
68508;BME280;55510;49.560;19.090;2023-12-14T11:00:08;95657.56;;;3.03;100.00
68508;BME280;55510;49.560;19.090;2023-12-14T11:03:13;95667.31;;;2.96;100.00
68508;BME280;55510;49.560;19.090;2023-12-14T11:06:31;95657.13;;;3.07;100.00
68508;BME280;55510;49.560;19.090;2023-12-14T11:09:32;95670.47;;;3.12;100.00
68508;BME280;55510;49.560;19.090;2023-12-14T11:12:33;95674.69;;;3.13;100.00
68508;BME280;55510;49.560;19.090;2023-12-14T11:15:34;95677.97;;;3.08;100.00
68508;BME280;55510;49.560;19.090;2023-12-14T11:18:35;95680.59;;;3.08;100.00
68508;BME280;55510;49.560;19.090;2023-12-14T11:21:36;95675.72;;;3.12;100.00
68508;BME280;55510;49.560;19.090;2023-12-14T11:24:37;95668.41;;;3.14;100.00
68508;BME280;55510;49.560;19.090;2023-12-14T11:27:42;95680.97;;;3.12;100.00
68508;BME280;55510;49.560;19.090;2023-12-14T11:30:44;95681.38;;;3.09;100.00
68508;BME280;55510;49.560;19.090;2023-12-14T11:33:45;95692.13;;;3.07;100.00
68508;BME280;55510;49.560;19.090;2023-12-14T11:36:48;95684.84;;;3.02;100.00
68508;BME280;55510;49.560;19.090;2023-12-14T11:39:50;95685.88;;;3.01;100.00
68508;BME280;55510;49.560;19.090;2023-12-14T11:42:59;95691.88;;;3.09;100.00
68508;BME280;55510;49.560;19.090;2023-12-14T11:46:01;95691.88;;;3.09;100.00
68508;BME280;55510;49.560;19.090;2023-12-14T11:49:01;95690.09;;;3.09;100.00
68508;BME280;55510;49.560;19.090;2023-12-14T11:52:04;95698.78;;;3.10;100.00
68508;BME280;55510;49.560;19.090;2023-12-14T11:55:05;95699.97;;;3.14;100.00
68508;BME280;55510;49.560;19.090;2023-12-14T11:58:06;95703.19;;;3.16;100.00
68508;BME280;55510;49.560;19.090;2023-12-14T12:01:18;95705.22;;;3.14;100.00
68508;BME280;55510;49.560;19.090;2023-12-14T12:04:19;95708.88;;;3.13;100.00
68508;BME280;55510;49.560;19.090;2023-12-14T12:07:20;95706.84;;;3.15;100.00
68508;BME280;55510;49.560;19.090;2023-12-14T12:10:23;95710.69;;;3.12;100.00
68508;BME280;55510;49.560;19.090;2023-12-14T12:13:23;95717.78;;;3.12;100.00
68508;BME280;55510;49.560;19.090;2023-12-14T12:16:24;95722.44;;;3.10;100.00
68508;BME280;55510;49.560;19.090;2023-12-14T12:19:25;95729.50;;;3.09;100.00
68508;BME280;55510;49.560;19.090;2023-12-14T12:22:26;95730.34;;;3.10;100.00
68508;BME280;55510;49.560;19.090;2023-12-14T12:25:27;95738.81;;;3.12;100.00
68508;BME280;55510;49.560;19.090;2023-12-14T12:28:30;95739.22;;;3.09;100.00
68508;BME280;55510;49.560;19.090;2023-12-14T12:31:31;95736.59;;;3.09;100.00
68508;BME280;55510;49.560;19.090;2023-12-14T12:34:32;95739.63;;;3.05;100.00
68508;BME280;55510;49.560;19.090;2023-12-14T12:37:32;95751.16;;;3.04;100.00
68508;BME280;55510;49.560;19.090;2023-12-14T12:40:33;95750.56;;;3.02;100.00
68508;BME280;55510;49.560;19.090;2023-12-14T12:43:34;95753.00;;;3.04;100.00
68508;BME280;55510;49.560;19.090;2023-12-14T12:46:35;95763.28;;;3.05;100.00
68508;BME280;55510;49.560;19.090;2023-12-14T12:49:36;95762.28;;;3.07;100.00
68508;BME280;55510;49.560;19.090;2023-12-14T12:52:36;95775.06;;;3.03;100.00
68508;BME280;55510;49.560;19.090;2023-12-14T12:55:37;95782.91;;;3.10;100.00
68508;BME280;55510;49.560;19.090;2023-12-14T12:58:38;95779.06;;;3.05;100.00
68508;BME280;55510;49.560;19.090;2023-12-14T13:01:39;95791.78;;;3.09;100.00
68508;BME280;55510;49.560;19.090;2023-12-14T13:04:40;95798.28;;;3.13;100.00
68508;BME280;55510;49.560;19.090;2023-12-14T13:07:44;95798.88;;;3.15;100.00
68508;BME280;55510;49.560;19.090;2023-12-14T13:10:45;95805.16;;;3.14;100.00
68508;BME280;55510;49.560;19.090;2023-12-14T13:13:47;95801.88;;;3.18;100.00
68508;BME280;55510;49.560;19.090;2023-12-14T13:16:48;95802.69;;;3.19;100.00
68508;BME280;55510;49.560;19.090;2023-12-14T13:19:51;95806.34;;;3.18;100.00
68508;BME280;55510;49.560;19.090;2023-12-14T13:22:52;95812.38;;;3.18;100.00
68508;BME280;55510;49.560;19.090;2023-12-14T13:25:53;95820.94;;;3.07;100.00
68508;BME280;55510;49.560;19.090;2023-12-14T13:28:54;95822.78;;;3.00;100.00
68508;BME280;55510;49.560;19.090;2023-12-14T13:31:55;95832.91;;;2.96;100.00
68508;BME280;55510;49.560;19.090;2023-12-14T13:34:55;95845.47;;;2.94;100.00
68508;BME280;55510;49.560;19.090;2023-12-14T13:37:56;95843.47;;;2.89;100.00
68508;BME280;55510;49.560;19.090;2023-12-14T13:40:57;95851.53;;;2.88;100.00
68508;BME280;55510;49.560;19.090;2023-12-14T13:43:58;95857.22;;;2.85;100.00
68508;BME280;55510;49.560;19.090;2023-12-14T13:46:58;95863.50;;;2.84;100.00
68508;BME280;55510;49.560;19.090;2023-12-14T13:49:59;95867.94;;;2.83;100.00
68508;BME280;55510;49.560;19.090;2023-12-14T13:53:00;95864.50;;;2.83;100.00
68508;BME280;55510;49.560;19.090;2023-12-14T13:56:02;95868.34;;;2.80;100.00
68508;BME280;55510;49.560;19.090;2023-12-14T13:59:03;95869.78;;;2.76;100.00
68508;BME280;55510;49.560;19.090;2023-12-14T14:02:04;95881.91;;;2.77;100.00
68508;BME280;55510;49.560;19.090;2023-12-14T14:05:05;95887.38;;;2.75;100.00
68508;BME280;55510;49.560;19.090;2023-12-14T14:08:06;95882.91;;;2.76;100.00
68508;BME280;55510;49.560;19.090;2023-12-14T14:11:07;95894.66;;;2.73;100.00
68508;BME280;55510;49.560;19.090;2023-12-14T14:14:07;95903.13;;;2.75;100.00
68508;BME280;55510;49.560;19.090;2023-12-14T14:17:08;95903.13;;;2.75;100.00
68508;BME280;55510;49.560;19.090;2023-12-14T14:20:10;95908.22;;;2.70;100.00
68508;BME280;55510;49.560;19.090;2023-12-14T14:23:11;95920.94;;;2.67;100.00
68508;BME280;55510;49.560;19.090;2023-12-14T14:26:11;95925.78;;;2.63;100.00
68508;BME280;55510;49.560;19.090;2023-12-14T14:29:12;95928.03;;;2.66;100.00
68508;BME280;55510;49.560;19.090;2023-12-14T14:32:12;95930.66;;;2.66;100.00
68508;BME280;55510;49.560;19.090;2023-12-14T14:35:14;95930.66;;;2.66;100.00
68508;BME280;55510;49.560;19.090;2023-12-14T14:38:15;95934.88;;;2.67;100.00
68508;BME280;55510;49.560;19.090;2023-12-14T14:41:18;95939.13;;;2.68;100.00
68508;BME280;55510;49.560;19.090;2023-12-14T14:44:18;95945.59;;;2.72;100.00
68508;BME280;55510;49.560;19.090;2023-12-14T14:47:20;95944.16;;;2.70;100.00
68508;BME280;55510;49.560;19.090;2023-12-14T14:50:22;95952.28;;;2.68;100.00
68508;BME280;55510;49.560;19.090;2023-12-14T14:53:22;95956.69;;;2.68;100.00
68508;BME280;55510;49.560;19.090;2023-12-14T14:56:23;95962.78;;;2.68;100.00
68508;BME280;55510;49.560;19.090;2023-12-14T14:59:24;95967.63;;;2.58;100.00
68508;BME280;55510;49.560;19.090;2023-12-14T15:02:25;95972.47;;;2.54;100.00
68508;BME280;55510;49.560;19.090;2023-12-14T15:05:26;95974.31;;;2.47;100.00
68508;BME280;55510;49.560;19.090;2023-12-14T15:08:27;95982.16;;;2.34;100.00
68508;BME280;55510;49.560;19.090;2023-12-14T15:11:28;95980.75;;;2.24;100.00
68508;BME280;55510;49.560;19.090;2023-12-14T15:14:29;95984.38;;;2.23;100.00
68508;BME280;55510;49.560;19.090;2023-12-14T15:17:29;95986.22;;;2.23;100.00
68508;BME280;55510;49.560;19.090;2023-12-14T15:20:30;95996.09;;;2.27;100.00
68508;BME280;55510;49.560;19.090;2023-12-14T15:23:31;95994.88;;;2.37;100.00
68508;BME280;55510;49.560;19.090;2023-12-14T15:26:31;96004.41;;;2.31;100.00
68508;BME280;55510;49.560;19.090;2023-12-14T15:29:33;95999.16;;;2.31;100.00
68508;BME280;55510;49.560;19.090;2023-12-14T15:32:33;96003.78;;;2.36;100.00
68508;BME280;55510;49.560;19.090;2023-12-14T15:35:34;96002.97;;;2.28;100.00
68508;BME280;55510;49.560;19.090;2023-12-14T15:38:35;96014.06;;;2.30;100.00
68508;BME280;55510;49.560;19.090;2023-12-14T15:41:36;96010.06;;;2.28;100.00
68508;BME280;55510;49.560;19.090;2023-12-14T15:44:36;96012.88;;;2.33;100.00
68508;BME280;55510;49.560;19.090;2023-12-14T15:47:37;96022.78;;;2.31;100.00
68508;BME280;55510;49.560;19.090;2023-12-14T15:50:38;96029.22;;;2.28;100.00
68508;BME280;55510;49.560;19.090;2023-12-14T15:53:40;96032.06;;;2.27;100.00
68508;BME280;55510;49.560;19.090;2023-12-14T15:56:40;96038.91;;;2.21;100.00
68508;BME280;55510;49.560;19.090;2023-12-14T15:59:41;96040.09;;;2.18;100.00
68508;BME280;55510;49.560;19.090;2023-12-14T16:02:41;96045.38;;;2.25;100.00
68508;BME280;55510;49.560;19.090;2023-12-14T16:05:43;96046.19;;;2.19;100.00
68508;BME280;55510;49.560;19.090;2023-12-14T16:08:44;96054.63;;;2.14;100.00
68508;BME280;55510;49.560;19.090;2023-12-14T16:11:45;96050.59;;;2.12;100.00
68508;BME280;55510;49.560;19.090;2023-12-14T16:14:45;96062.69;;;2.06;100.00
68508;BME280;55510;49.560;19.090;2023-12-14T16:17:47;96064.53;;;2.12;100.00
68508;BME280;55510;49.560;19.090;2023-12-14T16:20:48;96061.06;;;2.05;100.00
68508;BME280;55510;49.560;19.090;2023-12-14T16:23:50;96070.97;;;2.03;100.00
68508;BME280;55510;49.560;19.090;2023-12-14T16:26:50;96071.78;;;2.03;100.00
68508;BME280;55510;49.560;19.090;2023-12-14T16:29:53;96080.44;;;2.04;100.00
68508;BME280;55510;49.560;19.090;2023-12-14T16:32:54;96085.28;;;1.94;100.00
68508;BME280;55510;49.560;19.090;2023-12-14T16:35:56;96092.75;;;1.97;100.00
68508;BME280;55510;49.560;19.090;2023-12-14T16:38:57;96099.19;;;1.94;100.00
68508;BME280;55510;49.560;19.090;2023-12-14T16:41:58;96103.81;;;1.85;100.00
68508;BME280;55510;49.560;19.090;2023-12-14T16:44:59;96103.81;;;1.85;100.00
68508;BME280;55510;49.560;19.090;2023-12-14T16:47:59;96107.44;;;1.91;100.00
68508;BME280;55510;49.560;19.090;2023-12-14T16:51:03;96120.78;;;1.90;100.00
68508;BME280;55510;49.560;19.090;2023-12-14T16:54:04;96125.81;;;1.91;100.00
68508;BME280;55510;49.560;19.090;2023-12-14T16:57:04;96126.81;;;1.90;100.00
68508;BME280;55510;49.560;19.090;2023-12-14T17:00:06;96136.13;;;1.93;100.00
68508;BME280;55510;49.560;19.090;2023-12-14T17:03:06;96140.56;;;1.92;100.00
68508;BME280;55510;49.560;19.090;2023-12-14T17:06:07;96125.63;;;1.93;100.00
68508;BME280;55510;49.560;19.090;2023-12-14T17:09:10;96140.16;;;1.88;100.00
68508;BME280;55510;49.560;19.090;2023-12-14T17:12:11;96143.56;;;1.82;100.00
68508;BME280;55510;49.560;19.090;2023-12-14T17:15:12;96146.19;;;1.82;100.00
68508;BME280;55510;49.560;19.090;2023-12-14T17:18:14;96154.28;;;1.87;100.00
68508;BME280;55510;49.560;19.090;2023-12-14T17:21:22;96157.53;;;1.90;100.00
68508;BME280;55510;49.560;19.090;2023-12-14T17:24:24;96160.75;;;1.92;100.00
68508;BME280;55510;49.560;19.090;2023-12-14T17:27:24;96151.69;;;1.94;100.00
68508;BME280;55510;49.560;19.090;2023-12-14T17:30:27;96155.13;;;1.95;100.00
68508;BME280;55510;49.560;19.090;2023-12-14T17:33:27;96156.31;;;1.92;100.00
68508;BME280;55510;49.560;19.090;2023-12-14T17:36:28;96159.31;;;1.89;100.00
68508;BME280;55510;49.560;19.090;2023-12-14T17:39:29;96161.53;;;1.85;100.00
68508;BME280;55510;49.560;19.090;2023-12-14T17:42:30;96162.69;;;1.76;100.00
68508;BME280;55510;49.560;19.090;2023-12-14T17:45:31;96166.50;;;1.73;100.00
68508;BME280;55510;49.560;19.090;2023-12-14T17:48:32;96179.63;;;1.73;100.00
68508;BME280;55510;49.560;19.090;2023-12-14T17:51:38;96185.66;;;1.67;100.00
68508;BME280;55510;49.560;19.090;2023-12-14T17:54:40;96190.47;;;1.64;100.00
68508;BME280;55510;49.560;19.090;2023-12-14T17:57:40;96185.22;;;1.64;100.00
68508;BME280;55510;49.560;19.090;2023-12-14T18:00:41;96186.03;;;1.64;100.00
68508;BME280;55510;49.560;19.090;2023-12-14T18:03:42;96186.44;;;1.68;100.00
68508;BME280;55510;49.560;19.090;2023-12-14T18:06:43;96201.38;;;1.67;100.00
68508;BME280;55510;49.560;19.090;2023-12-14T18:09:44;96204.19;;;1.66;100.00
68508;BME280;55510;49.560;19.090;2023-12-14T18:12:46;96206.78;;;1.59;100.00
68508;BME280;55510;49.560;19.090;2023-12-14T18:15:47;96208.59;;;1.58;100.00
68508;BME280;55510;49.560;19.090;2023-12-14T18:18:47;96215.44;;;1.59;100.00
68508;BME280;55510;49.560;19.090;2023-12-14T18:21:48;96221.69;;;1.58;100.00
68508;BME280;55510;49.560;19.090;2023-12-14T18:24:49;96221.53;;;1.60;100.00
68508;BME280;55510;49.560;19.090;2023-12-14T18:27:51;96229.00;;;1.63;100.00
68508;BME280;55510;49.560;19.090;2023-12-14T18:30:54;96231.41;;;1.58;100.00
68508;BME280;55510;49.560;19.090;2023-12-14T18:33:54;96238.28;;;1.66;100.00
68508;BME280;55510;49.560;19.090;2023-12-14T18:36:55;96247.75;;;1.60;100.00
68508;BME280;55510;49.560;19.090;2023-12-14T18:39:57;96245.31;;;1.58;100.00
68508;BME280;55510;49.560;19.090;2023-12-14T18:42:58;96255.00;;;1.58;100.00
68508;BME280;55510;49.560;19.090;2023-12-14T18:45:59;96256.81;;;1.57;100.00
68508;BME280;55510;49.560;19.090;2023-12-14T18:48:59;96258.19;;;1.53;100.00
68508;BME280;55510;49.560;19.090;2023-12-14T18:52:00;96268.06;;;1.51;100.00
68508;BME280;55510;49.560;19.090;2023-12-14T18:55:01;96275.16;;;1.57;100.00
68508;BME280;55510;49.560;19.090;2023-12-14T18:58:05;96276.16;;;1.56;100.00
68508;BME280;55510;49.560;19.090;2023-12-14T19:01:07;96279.41;;;1.58;100.00
68508;BME280;55510;49.560;19.090;2023-12-14T19:04:08;96284.66;;;1.58;100.00
68508;BME280;55510;49.560;19.090;2023-12-14T19:07:09;96300.59;;;1.57;100.00
68508;BME280;55510;49.560;19.090;2023-12-14T19:10:09;96297.75;;;1.58;100.00
